createdAt,value
2018-12-05T00:00:15.332Z,95063.25
2018-12-05T00:02:44.345Z,95067.51
2018-12-05T00:05:13.405Z,95069.19
2018-12-05T00:07:42.446Z,95069.86
2018-12-05T00:10:11.605Z,95072.06
2018-12-05T00:12:40.622Z,95071.31
2018-12-05T00:15:09.816Z,95077.19
2018-12-05T00:17:38.835Z,95080.53
2018-12-05T00:20:08.035Z,95082.68
2018-12-05T00:22:37.014Z,95081.28
2018-12-05T00:25:06.316Z,95087.44
2018-12-05T00:27:35.415Z,95093.84
2018-12-05T00:30:04.793Z,95085.50
2018-12-05T00:32:33.826Z,95081.94
2018-12-05T00:35:02.803Z,95088.41
2018-12-05T00:37:31.923Z,95090.00
2018-12-05T00:40:01.191Z,95088.66
2018-12-05T00:42:30.212Z,95087.79
2018-12-05T00:44:59.215Z,95094.50
2018-12-05T00:47:28.317Z,95091.48
2018-12-05T00:49:57.468Z,95097.34
2018-12-05T00:52:26.504Z,95095.30
2018-12-05T00:54:55.691Z,95099.80
2018-12-05T00:57:24.815Z,95093.16
2018-12-05T00:59:53.797Z,95096.59
2018-12-05T01:02:23.039Z,95093.63
2018-12-05T01:04:52.028Z,95098.41
2018-12-05T01:07:21.211Z,95092.91
2018-12-05T01:09:50.311Z,95092.23
2018-12-05T01:12:19.305Z,95091.06
2018-12-05T01:14:48.379Z,95101.03
2018-12-05T01:17:17.475Z,95097.25
2018-12-05T01:19:46.422Z,95100.75
2018-12-05T01:22:15.459Z,95093.91
2018-12-05T01:24:44.537Z,95092.41
2018-12-05T01:27:13.729Z,95094.43
2018-12-05T01:29:42.884Z,95093.84
2018-12-05T01:32:11.814Z,95094.56
2018-12-05T01:34:40.925Z,95094.56
2018-12-05T01:37:09.908Z,95100.97
2018-12-05T01:39:38.918Z,95097.00
2018-12-05T01:42:08.026Z,95095.50
2018-12-05T01:44:37.019Z,95097.66
2018-12-05T01:47:06.124Z,95097.41
2018-12-05T01:49:35.200Z,95099.81
2018-12-05T01:52:04.310Z,95106.25
2018-12-05T01:54:33.295Z,95105.66
2018-12-05T01:57:02.291Z,95101.81
2018-12-05T01:59:31.491Z,95099.63
2018-12-05T02:02:00.565Z,95106.99
2018-12-05T02:04:29.533Z,95111.49
2018-12-05T02:06:58.576Z,95109.34
2018-12-05T02:09:27.559Z,95114.71
2018-12-05T02:11:56.640Z,95115.58
2018-12-05T02:14:25.657Z,95115.12
2018-12-05T02:16:54.792Z,95116.06
2018-12-05T02:19:23.849Z,95117.55
2018-12-05T02:21:52.928Z,95123.12
2018-12-05T02:24:22.140Z,95122.18
2018-12-05T02:26:51.293Z,95122.34
2018-12-05T02:29:20.491Z,95120.24
2018-12-05T02:31:49.532Z,95122.30
2018-12-05T02:34:18.641Z,95117.97
2018-12-05T02:36:47.612Z,95126.95
2018-12-05T02:39:16.613Z,95121.59
2018-12-05T02:41:45.708Z,95126.27
2018-12-05T02:44:14.804Z,95127.33
2018-12-05T02:46:43.904Z,95129.08
2018-12-05T02:49:12.995Z,95132.39
2018-12-05T02:51:42.064Z,95133.55
2018-12-05T02:54:11.180Z,95136.55
2018-12-05T02:56:40.287Z,95136.61
2018-12-05T02:59:09.396Z,95140.33
2018-12-05T03:01:38.369Z,95142.13
2018-12-05T03:04:07.372Z,95146.70
2018-12-05T03:06:36.499Z,95138.83
2018-12-05T03:09:08.037Z,95141.04
2018-12-05T03:11:37.028Z,95151.31
2018-12-05T03:14:06.107Z,95148.70
2018-12-05T03:16:35.229Z,95152.87
2018-12-05T03:19:04.191Z,95153.06
2018-12-05T03:21:33.261Z,95158.63
2018-12-05T03:24:02.204Z,95166.25
2018-12-05T03:26:31.172Z,95166.71
2018-12-05T03:29:00.269Z,95168.03
2018-12-05T03:31:29.284Z,95158.66
2018-12-05T03:33:58.372Z,95168.84
2018-12-05T03:36:27.464Z,95170.81
2018-12-05T03:38:56.549Z,95166.03
2018-12-05T03:41:25.590Z,95167.72
2018-12-05T03:43:54.588Z,95174.22
2018-12-05T03:46:23.659Z,95178.44
2018-12-05T03:48:52.754Z,95178.53
2018-12-05T03:51:21.874Z,95184.96
2018-12-05T03:53:50.848Z,95185.91
2018-12-05T03:56:19.872Z,95184.62
2018-12-05T03:58:49.043Z,95188.71
2018-12-05T04:01:18.154Z,95193.62
2018-12-05T04:03:47.080Z,95199.46
2018-12-05T04:06:16.105Z,95187.84
2018-12-05T04:08:45.195Z,95195.84
2018-12-05T04:11:14.339Z,95200.42
2018-12-05T04:13:43.406Z,95193.49
2018-12-05T04:16:12.399Z,95198.87
2018-12-05T04:18:41.528Z,95197.65
2018-12-05T04:21:10.597Z,95205.99
2018-12-05T04:23:39.713Z,95201.27
2018-12-05T04:26:08.792Z,95205.65
2018-12-05T04:28:37.799Z,95208.73
2018-12-05T04:31:06.775Z,95209.08
2018-12-05T04:33:35.884Z,95207.98
2018-12-05T04:36:04.748Z,95206.92
2018-12-05T04:38:33.853Z,95199.52
2018-12-05T04:41:02.839Z,95206.80
2018-12-05T04:43:31.840Z,95210.77
2018-12-05T04:46:00.932Z,95214.98
2018-12-05T04:48:30.079Z,95221.86
2018-12-05T04:50:59.142Z,95216.27
2018-12-05T04:53:28.146Z,95217.08
2018-12-05T04:55:57.242Z,95221.64
2018-12-05T04:58:26.331Z,95217.48
2018-12-05T05:00:55.487Z,95224.34
2018-12-05T05:03:24.551Z,95225.21
2018-12-05T05:05:53.522Z,95236.14
2018-12-05T05:08:22.727Z,95235.83
2018-12-05T05:10:51.779Z,95240.11
2018-12-05T05:13:20.847Z,95239.77
2018-12-05T05:15:49.779Z,95241.11
2018-12-05T05:18:18.784Z,95236.48
2018-12-05T05:20:48.040Z,95238.81
2018-12-05T05:23:17.003Z,95239.05
2018-12-05T05:25:46.269Z,95244.28
2018-12-05T05:28:15.280Z,95248.36
2018-12-05T05:30:44.364Z,95254.47
2018-12-05T05:33:13.368Z,95256.69
2018-12-05T05:35:42.365Z,95256.55
2018-12-05T05:38:11.348Z,95257.56
2018-12-05T05:40:40.352Z,95258.73
2018-12-05T05:43:09.376Z,95262.77
2018-12-05T05:45:38.457Z,95260.72
2018-12-05T05:48:07.550Z,95269.17
2018-12-05T05:50:36.739Z,95272.39
2018-12-05T05:53:05.850Z,95273.95
2018-12-05T05:55:34.830Z,95280.41
2018-12-05T05:58:03.832Z,95288.53
2018-12-05T06:00:32.880Z,95286.66
2018-12-05T06:03:01.819Z,95295.93
2018-12-05T06:05:30.788Z,95301.72
2018-12-05T06:07:59.839Z,95294.59
2018-12-05T06:10:28.896Z,95307.84
2018-12-05T06:12:57.976Z,95307.23
2018-12-05T06:15:27.281Z,95306.74
2018-12-05T06:17:56.237Z,95313.87
2018-12-05T06:20:25.276Z,95326.94
2018-12-05T06:22:54.259Z,95321.31
2018-12-05T06:25:23.275Z,95324.70
2018-12-05T06:27:52.164Z,95322.29
2018-12-05T06:30:21.273Z,95332.69
2018-12-05T06:32:50.252Z,95338.20
2018-12-05T06:35:19.365Z,95333.86
2018-12-05T06:37:48.362Z,95346.39
2018-12-05T06:40:17.435Z,95348.74
2018-12-05T06:42:46.525Z,95363.27
2018-12-05T06:45:15.627Z,95361.16
2018-12-05T06:47:44.620Z,95370.88
2018-12-05T06:50:13.625Z,95367.61
2018-12-05T06:52:42.620Z,95372.84
2018-12-05T06:55:11.785Z,95371.16
2018-12-05T06:57:41.012Z,95368.83
2018-12-05T07:00:10.113Z,95376.67
2018-12-05T07:02:39.214Z,95374.41
2018-12-05T07:05:08.200Z,95382.47
2018-12-05T07:07:37.321Z,95379.78
2018-12-05T07:10:06.780Z,95377.80
2018-12-05T07:12:35.895Z,95378.72
2018-12-05T07:15:04.902Z,95387.09
2018-12-05T07:17:33.897Z,95387.09
2018-12-05T07:20:02.882Z,95393.05
2018-12-05T07:22:31.890Z,95390.60
2018-12-05T07:25:00.909Z,95393.00
2018-12-05T07:27:30.032Z,95399.38
2018-12-05T07:29:59.905Z,95396.50
2018-12-05T07:32:29.055Z,95405.59
2018-12-05T07:34:58.112Z,95405.87
2018-12-05T07:37:27.074Z,95407.01
2018-12-05T07:39:56.181Z,95411.88
2018-12-05T07:42:25.269Z,95417.55
2018-12-05T07:44:54.369Z,95406.79
2018-12-05T07:47:23.226Z,95414.25
2018-12-05T07:49:52.247Z,95425.81
2018-12-05T07:52:21.342Z,95422.81
2018-12-05T07:54:50.472Z,95431.37
2018-12-05T07:57:19.436Z,95431.02
2018-12-05T07:59:48.531Z,95434.30
2018-12-05T08:02:17.577Z,95439.68
2018-12-05T08:04:46.723Z,95434.91
2018-12-05T08:07:15.923Z,95437.91
2018-12-05T08:09:45.004Z,95436.93
2018-12-05T08:12:14.107Z,95460.27
2018-12-05T08:14:43.406Z,95451.16
2018-12-05T08:17:12.489Z,95477.27
2018-12-05T08:19:41.638Z,95481.02
2018-12-05T08:22:10.808Z,95475.39
2018-12-05T08:24:39.956Z,95497.00
2018-12-05T08:27:09.462Z,95485.75
2018-12-05T08:29:38.589Z,95495.44
2018-12-05T08:32:07.660Z,95488.05
2018-12-05T08:34:36.852Z,95507.66
2018-12-05T08:37:05.988Z,95501.38
2018-12-05T08:39:35.214Z,95494.47
2018-12-05T08:42:04.318Z,95497.59
2018-12-05T08:44:33.303Z,95505.97
2018-12-05T08:47:02.615Z,95495.74
2018-12-05T08:49:31.739Z,95505.22
2018-12-05T08:52:00.797Z,95519.09
2018-12-05T08:54:29.886Z,95514.60
2018-12-05T08:56:58.936Z,95506.30
2018-12-05T08:59:27.951Z,95502.41
2018-12-05T09:01:57.053Z,95503.23
2018-12-05T09:04:26.064Z,95511.61
2018-12-05T09:06:55.169Z,95513.31
2018-12-05T09:09:24.146Z,95517.81
2018-12-05T09:11:53.494Z,95516.98
2018-12-05T09:14:28.627Z,95513.31
2018-12-05T09:16:53.491Z,95526.69
2018-12-05T09:19:22.490Z,95528.03
2018-12-05T09:21:51.471Z,95518.41
2018-12-05T09:24:20.472Z,95508.33
2018-12-05T09:26:49.449Z,95503.56
2018-12-05T09:29:18.499Z,95510.64
2018-12-05T09:31:47.456Z,95504.30
2018-12-05T09:34:16.545Z,95512.87
2018-12-05T09:36:45.646Z,95505.41
2018-12-05T09:39:14.629Z,95512.66
2018-12-05T09:41:43.607Z,95513.71
2018-12-05T09:44:12.640Z,95518.13
2018-12-05T09:46:41.623Z,95517.05
2018-12-05T09:49:10.823Z,95522.67
2018-12-05T09:51:39.943Z,95520.16
2018-12-05T09:54:08.915Z,95527.66
2018-12-05T09:56:38.027Z,95538.70
2018-12-05T09:59:06.830Z,95523.31
2018-12-05T10:01:35.867Z,95526.89
2018-12-05T10:04:05.095Z,95519.45
2018-12-05T10:06:34.289Z,95517.41
2018-12-05T10:09:04.354Z,95520.55
2018-12-05T10:11:33.409Z,95520.98
2018-12-05T10:14:02.730Z,95519.95
2018-12-05T10:16:31.996Z,95523.98
2018-12-05T10:19:01.112Z,95528.61
2018-12-05T10:21:30.380Z,95522.95
2018-12-05T10:23:59.556Z,95521.30
2018-12-05T10:26:28.595Z,95517.47
2018-12-05T10:28:57.812Z,95517.47
2018-12-05T10:31:27.036Z,95522.33
2018-12-05T10:33:56.201Z,95528.41
2018-12-05T10:36:25.286Z,95523.67
2018-12-05T10:38:54.272Z,95530.73
2018-12-05T10:41:23.473Z,95531.16
2018-12-05T10:43:52.579Z,95521.89
2018-12-05T10:46:21.661Z,95523.53
2018-12-05T10:48:50.771Z,95526.07
2018-12-05T10:51:20.024Z,95527.80
2018-12-05T10:53:49.062Z,95533.39
2018-12-05T10:56:18.093Z,95526.67
2018-12-05T10:58:47.144Z,95537.86
2018-12-05T11:01:21.090Z,95529.79
2018-12-05T11:03:50.117Z,95527.46
2018-12-05T11:06:24.156Z,95532.23
2018-12-05T11:08:58.248Z,95514.40
2018-12-05T11:11:32.472Z,95510.69
2018-12-05T11:14:06.512Z,95500.50
2018-12-05T11:16:40.449Z,95504.98
2018-12-05T11:19:14.640Z,95496.11
2018-12-05T11:21:49.779Z,95503.11
2018-12-05T11:24:24.113Z,95500.49
2018-12-05T11:26:53.270Z,95510.72
2018-12-05T11:29:22.280Z,95503.39
2018-12-05T11:31:51.272Z,95506.44
2018-12-05T11:34:20.412Z,95507.04
2018-12-05T11:36:50.300Z,95508.67
2018-12-05T11:39:19.413Z,95503.82
2018-12-05T11:41:48.500Z,95500.77
2018-12-05T11:44:17.502Z,95507.56
2018-12-05T11:46:46.552Z,95508.91
2018-12-05T11:49:15.547Z,95505.55
2018-12-05T11:51:44.657Z,95508.45
2018-12-05T11:54:13.760Z,95513.77
2018-12-05T11:56:42.904Z,95509.27
2018-12-05T11:59:12.009Z,95523.70
2018-12-05T12:01:41.129Z,95520.20
2018-12-05T12:04:10.262Z,95524.06
2018-12-05T12:06:39.236Z,95523.53
2018-12-05T12:09:09.660Z,95527.81
2018-12-05T12:11:38.859Z,95536.80
2018-12-05T12:14:08.004Z,95534.82
2018-12-05T12:16:37.077Z,95542.15
2018-12-05T12:19:06.068Z,95544.77
2018-12-05T12:21:35.073Z,95536.41
2018-12-05T12:24:04.128Z,95537.62
2018-12-05T12:26:33.506Z,95534.78
2018-12-05T12:29:02.661Z,95539.70
2018-12-05T12:31:31.698Z,95535.14
2018-12-05T12:34:00.883Z,95544.58
2018-12-05T12:36:29.952Z,95542.68
2018-12-05T12:38:59.158Z,95546.67
2018-12-05T12:41:28.564Z,95540.09
2018-12-05T12:43:57.900Z,95548.61
2018-12-05T12:46:27.189Z,95556.38
2018-12-05T12:48:56.324Z,95551.84
2018-12-05T12:51:26.483Z,95541.89
2018-12-05T12:53:55.601Z,95539.20
2018-12-05T12:56:24.792Z,95554.06
2018-12-05T12:58:54.796Z,95554.14
2018-12-05T13:01:24.349Z,95548.02
2018-12-05T13:03:53.477Z,95550.56
2018-12-05T13:06:22.668Z,95553.39
2018-12-05T13:08:52.621Z,95568.18
2018-12-05T13:11:21.621Z,95561.17
2018-12-05T13:13:50.536Z,95553.20
2018-12-05T13:16:20.784Z,95556.85
2018-12-05T13:18:49.957Z,95562.52
2018-12-05T13:21:18.889Z,95563.86
2018-12-05T13:23:47.992Z,95569.38
2018-12-05T13:26:17.007Z,95574.83
2018-12-05T13:28:46.063Z,95567.89
2018-12-05T13:31:15.151Z,95564.84
2018-12-05T13:33:44.235Z,95565.56
2018-12-05T13:36:13.401Z,95560.66
2018-12-05T13:38:42.622Z,95551.94
2018-12-05T13:41:11.779Z,95551.56
2018-12-05T13:43:40.830Z,95544.67
2018-12-05T13:46:09.980Z,95559.85
2018-12-05T13:48:38.971Z,95544.03
2018-12-05T13:51:08.920Z,95551.94
2018-12-05T13:53:39.069Z,95547.73
2018-12-05T13:56:08.245Z,95552.81
2018-12-05T13:58:37.215Z,95548.36
2018-12-05T14:01:06.396Z,95553.08
2018-12-05T14:03:35.635Z,95552.38
2018-12-05T14:06:04.783Z,95553.62
2018-12-05T14:08:33.804Z,95570.81
2018-12-05T14:11:03.889Z,95576.25
2018-12-05T14:13:33.209Z,95566.55
2018-12-05T14:16:02.588Z,95578.88
2018-12-05T14:18:31.628Z,95587.94
2018-12-05T14:21:00.677Z,95581.51
2018-12-05T14:23:29.699Z,95583.36
2018-12-05T14:25:58.856Z,95582.39
2018-12-05T14:28:27.879Z,95587.23
2018-12-05T14:30:57.029Z,95591.03
2018-12-05T14:33:25.854Z,95596.34
2018-12-05T14:35:55.566Z,95593.53
2018-12-05T14:38:24.995Z,95608.44
2018-12-05T14:40:54.289Z,95599.86
2018-12-05T14:43:23.576Z,95611.47
2018-12-05T14:45:52.578Z,95608.20
2018-12-05T14:48:21.652Z,95618.67
2018-12-05T14:50:50.767Z,95622.54
2018-12-05T14:53:19.997Z,95628.08
2018-12-05T14:55:49.088Z,95619.41
2018-12-05T14:58:18.117Z,95626.57
2018-12-05T15:00:47.271Z,95620.02
2018-12-05T15:03:16.392Z,95617.93
2018-12-05T15:05:45.647Z,95609.55
2018-12-05T15:08:14.827Z,95604.36
2018-12-05T15:10:44.067Z,95608.31
2018-12-05T15:13:13.179Z,95611.11
2018-12-05T15:15:42.261Z,95620.67
2018-12-05T15:18:11.368Z,95624.57
2018-12-05T15:20:40.555Z,95628.08
2018-12-05T15:23:09.964Z,95626.73
2018-12-05T15:25:39.060Z,95625.99
2018-12-05T15:28:08.239Z,95638.69
2018-12-05T15:30:37.440Z,95633.45
2018-12-05T15:33:06.604Z,95634.63
2018-12-05T15:35:35.625Z,95646.36
2018-12-05T15:38:04.645Z,95641.19
2018-12-05T15:40:34.666Z,95644.07
2018-12-05T15:43:03.813Z,95642.78
2018-12-05T15:45:33.215Z,95649.58
2018-12-05T15:48:02.451Z,95653.81
2018-12-05T15:50:31.574Z,95653.28
2018-12-05T15:53:00.552Z,95663.70
2018-12-05T15:55:29.848Z,95662.64
2018-12-05T15:57:58.951Z,95664.36
2018-12-05T16:00:28.218Z,95664.56
2018-12-05T16:02:57.452Z,95667.86
2018-12-05T16:05:26.544Z,95666.44
2018-12-05T16:07:55.686Z,95669.48
2018-12-05T16:10:24.740Z,95657.64
2018-12-05T16:12:53.732Z,95664.65
2018-12-05T16:15:22.772Z,95672.00
2018-12-05T16:17:51.960Z,95669.31
2018-12-05T16:20:20.987Z,95674.86
2018-12-05T16:22:50.107Z,95677.80
2018-12-05T16:25:19.818Z,95669.28
2018-12-05T16:27:48.932Z,95681.83
2018-12-05T16:30:18.125Z,95678.89
2018-12-05T16:32:47.354Z,95678.73
2018-12-05T16:35:17.383Z,95685.73
2018-12-05T16:37:46.397Z,95679.43
2018-12-05T16:40:16.660Z,95678.82
2018-12-05T16:42:45.412Z,95685.45
2018-12-05T16:45:14.448Z,95692.16
2018-12-05T16:47:43.655Z,95690.10
2018-12-05T16:50:12.944Z,95696.30
2018-12-05T16:52:41.934Z,95691.59
2018-12-05T16:55:11.032Z,95691.72
2018-12-05T16:57:40.225Z,95696.52
2018-12-05T17:00:11.046Z,95697.80
2018-12-05T17:02:40.262Z,95699.30
2018-12-05T17:05:09.463Z,95701.05
2018-12-05T17:07:38.449Z,95707.56
2018-12-05T17:10:07.864Z,95711.22
2018-12-05T17:12:37.140Z,95714.20
2018-12-05T17:15:06.205Z,95700.64
2018-12-05T17:17:35.392Z,95714.83
2018-12-05T17:20:04.336Z,95712.86
2018-12-05T17:22:33.436Z,95723.30
2018-12-05T17:25:02.481Z,95729.33
2018-12-05T17:27:31.452Z,95731.02
2018-12-05T17:30:00.639Z,95726.55
2018-12-05T17:32:29.641Z,95730.20
2018-12-05T17:34:58.751Z,95728.53
2018-12-05T17:37:27.861Z,95732.45
2018-12-05T17:39:57.084Z,95734.45
2018-12-05T17:42:26.285Z,95741.70
2018-12-05T17:44:55.355Z,95743.72
2018-12-05T17:47:24.415Z,95736.39
2018-12-05T17:49:53.706Z,95736.68
2018-12-05T17:52:22.907Z,95737.22
2018-12-05T17:54:52.013Z,95742.22
2018-12-05T17:57:21.112Z,95736.80
2018-12-05T17:59:50.126Z,95743.04
2018-12-05T18:02:19.084Z,95744.38
2018-12-05T18:04:48.077Z,95743.66
2018-12-05T18:07:17.074Z,95737.38
2018-12-05T18:09:46.164Z,95738.72
2018-12-05T18:12:15.204Z,95734.77
2018-12-05T18:14:44.256Z,95736.23
2018-12-05T18:17:13.352Z,95737.81
2018-12-05T18:19:42.376Z,95737.14
2018-12-05T18:22:11.436Z,95740.80
2018-12-05T18:24:40.600Z,95742.59
2018-12-05T18:27:09.664Z,95744.75
2018-12-05T18:29:38.843Z,95741.66
2018-12-05T18:32:07.943Z,95741.82
2018-12-05T18:34:36.945Z,95742.80
2018-12-05T18:37:06.096Z,95751.47
2018-12-05T18:39:35.152Z,95745.48
2018-12-05T18:42:04.133Z,95759.22
2018-12-05T18:44:33.112Z,95762.75
2018-12-05T18:47:02.100Z,95762.30
2018-12-05T18:49:31.198Z,95764.10
2018-12-05T18:52:00.137Z,95763.33
2018-12-05T18:54:29.204Z,95767.81
2018-12-05T18:56:58.195Z,95769.97
2018-12-05T18:59:27.220Z,95770.73
2018-12-05T19:01:56.726Z,95772.48
2018-12-05T19:04:25.844Z,95768.58
2018-12-05T19:06:55.020Z,95767.61
2018-12-05T19:09:26.943Z,95772.55
2018-12-05T19:23:28.729Z,95788.53
2018-12-05T19:25:57.864Z,95782.45
2018-12-05T19:28:27.093Z,95783.23
2018-12-05T19:30:56.115Z,95791.80
2018-12-05T19:33:25.280Z,95795.67
2018-12-05T19:35:54.616Z,95798.16
2018-12-05T19:38:23.585Z,95799.70
2018-12-05T19:40:52.660Z,95797.75
2018-12-05T19:43:21.785Z,95798.97
2018-12-05T19:45:51.197Z,95803.45
2018-12-05T19:48:21.967Z,95800.97
2018-12-05T19:50:50.939Z,95799.58
2018-12-05T19:53:19.871Z,95791.64
2018-12-05T19:55:49.004Z,95792.23
2018-12-05T19:58:18.135Z,95808.16
2018-12-05T20:00:47.456Z,95801.44
2018-12-05T20:03:16.522Z,95804.70
2018-12-05T20:05:45.748Z,95802.48
2018-12-05T20:08:14.918Z,95804.20
2018-12-05T20:10:44.117Z,95804.34
2018-12-05T20:13:13.205Z,95810.34
2018-12-05T20:15:42.305Z,95809.70
2018-12-05T20:18:11.545Z,95808.95
2018-12-05T20:20:40.792Z,95810.19
2018-12-05T20:23:09.968Z,95813.05
2018-12-05T20:25:39.180Z,95808.84
2018-12-05T20:28:08.365Z,95807.24
2018-12-05T20:30:37.484Z,95809.27
2018-12-05T20:33:06.672Z,95811.68
2018-12-05T20:35:36.026Z,95813.93
2018-12-05T20:38:05.145Z,95812.72
2018-12-05T20:40:34.848Z,95817.53
2018-12-05T20:43:03.979Z,95821.04
2018-12-05T20:45:33.084Z,95813.86
2018-12-05T20:48:02.168Z,95819.16
2018-12-05T20:50:31.273Z,95811.97
2018-12-05T20:53:00.366Z,95816.55
2018-12-05T20:55:29.467Z,95814.55
2018-12-05T20:57:58.489Z,95814.15
2018-12-05T21:00:27.548Z,95820.05
2018-12-05T21:02:56.543Z,95811.82
2018-12-05T21:05:25.531Z,95820.52
2018-12-05T21:07:54.608Z,95819.95
2018-12-05T21:10:23.641Z,95808.20
2018-12-05T21:12:52.608Z,95812.32
2018-12-05T21:15:21.755Z,95810.37
2018-12-05T21:17:50.743Z,95822.63
2018-12-05T21:20:19.708Z,95819.41
2018-12-05T21:22:48.707Z,95810.45
2018-12-05T21:25:17.708Z,95813.25
2018-12-05T21:27:46.900Z,95819.59
2018-12-05T21:30:16.000Z,95819.32
2018-12-05T21:32:44.942Z,95821.04
2018-12-05T21:35:13.923Z,95814.91
2018-12-05T21:37:42.934Z,95828.58
2018-12-05T21:40:11.923Z,95829.48
2018-12-05T21:42:41.197Z,95824.00
2018-12-05T21:45:10.171Z,95827.13
2018-12-05T21:47:39.240Z,95824.53
2018-12-05T21:50:08.336Z,95822.98
2018-12-05T21:52:37.479Z,95823.48
2018-12-05T21:55:06.996Z,95821.36
2018-12-05T21:57:35.968Z,95826.21
2018-12-05T22:00:06.412Z,95818.09
2018-12-05T22:02:35.353Z,95825.13
2018-12-05T22:05:04.443Z,95821.23
2018-12-05T22:07:33.449Z,95824.17
2018-12-05T22:10:02.559Z,95828.45
2018-12-05T22:12:31.652Z,95826.66
2018-12-05T22:15:00.745Z,95828.66
2018-12-05T22:17:29.737Z,95830.98
2018-12-05T22:19:58.840Z,95830.52
2018-12-05T22:22:27.836Z,95831.98
2018-12-05T22:24:57.131Z,95829.27
2018-12-05T22:27:26.239Z,95827.83
2018-12-05T22:29:55.231Z,95822.58
2018-12-05T22:32:24.321Z,95826.78
2018-12-05T22:34:53.438Z,95823.20
2018-12-05T22:37:22.616Z,95819.16
2018-12-05T22:39:51.720Z,95820.30
2018-12-05T22:42:20.666Z,95824.46
2018-12-05T22:44:49.760Z,95826.70
2018-12-05T22:47:18.795Z,95817.52
2018-12-05T22:49:47.876Z,95827.51
2018-12-05T22:52:16.972Z,95832.61
2018-12-05T22:54:45.985Z,95825.27
2018-12-05T22:57:15.983Z,95825.44
2018-12-05T22:59:45.100Z,95834.72
2018-12-05T23:02:14.416Z,95829.70
2018-12-05T23:04:43.502Z,95829.62
2018-12-05T23:07:12.519Z,95828.04
2018-12-05T23:09:41.488Z,95826.73
2018-12-05T23:12:10.547Z,95829.02
2018-12-05T23:14:39.564Z,95826.78
2018-12-05T23:17:08.652Z,95834.57
2018-12-05T23:19:37.672Z,95830.97
2018-12-05T23:22:06.640Z,95834.77
2018-12-05T23:24:35.753Z,95829.91
2018-12-05T23:27:04.747Z,95833.77
2018-12-05T23:29:33.758Z,95836.92
2018-12-05T23:32:02.842Z,95827.75
2018-12-05T23:34:31.945Z,95830.08
2018-12-05T23:37:00.933Z,95822.63
2018-12-05T23:39:30.069Z,95829.09
2018-12-05T23:41:59.028Z,95838.25
2018-12-05T23:44:44.172Z,95839.30
2018-12-05T23:47:13.202Z,95837.00
2018-12-05T23:49:42.216Z,95850.23
2018-12-05T23:52:11.388Z,95844.73
2018-12-05T23:54:40.380Z,95845.15
2018-12-05T23:57:09.330Z,95848.45
2018-12-05T23:59:38.362Z,95858.44
